Friday, July 20, 2018, 8:43 AM GMT
Back to Local

CWBK, Caribou Point Meteorological Aeronautical Presentation System

Location: , , Canada Lat: 45.767
Local Time: 8:43 AM GMT ( 8:43 GMT) Lon: -62.683
Time Zone: GMT Elev: 6 ft

Show me the last for .
Show Coded

Time T Td Feel RH Dir Speed Gust Alt SLP Vis Weather Sky Remarks
2018-07-20 06:00 61 54 - 79 210° 3 - - 30.09 0 None
2018-07-20 05:00 62 57 - 83 190° 8 - - 30.09 0 None
2018-07-20 04:00 62 58 - 84 200° 5 - - 30.09 0 None
2018-07-20 03:00 64 61 - 88 170° 8 - - 30.08 0 None
2018-07-20 02:00 65 60 - 84 130° 5 - - 30.07 0 None
2018-07-20 01:00 64 60 - 87 70° 5 - - 30.06 0 None
2018-07-20 00:00 64 60 - 85 80° 7 - - 30.04 0 None
2018-07-19 23:00 66 57 - 72 80° 3 - - 30.02 0 None
2018-07-19 22:00 68 59 - 72 60° 2 - - 30.01 0 None
2018-07-19 21:00 69 60 - 74 60° 3 - - 30.00 0 None
2018-07-19 20:00 67 60 - 79 60° 3 - - 30.00 0 None
2018-07-19 19:00 69 60 - 72 10° 2 - - 30.00 0 None
2018-07-19 18:00 67 62 - 82 20° 2 - - 30.00 0 None
2018-07-19 17:00 68 59 - 72 10° 3 - - 29.99 0 None
2018-07-19 16:00 68 58 - 68 10° 2 - - 29.98 0 None
2018-07-19 15:00 67 61 - 79 320° 5 - - 29.98 0 None
2018-07-19 14:00 65 60 - 82 310° 5 - - 29.97 0 None
2018-07-19 13:00 65 61 - 85 300° 6 - - 29.95 0 None
2018-07-19 12:00 64 61 - 90 300° 7 - - 29.95 0 None
2018-07-19 11:00 63 61 - 95 310° 2 - - 29.93 0 None
2018-07-19 10:00 62 60 - 95 10° 5 - - 29.92 0 None
2018-07-19 09:00 61 60 - 95 20° 6 - - 29.89 0 None

Support USWX by starting your Amazon purchase here.